Airfield :
LOGIN :

Register | Disclaimer

   EN    FR    IT 

 










Legend :    VFR   Marginal VFR   IFR   Intensive IFR   Very Intensive IFR
Visi :
Ceiling :
>= 8 km
>= 3000ft
5 to 8 km
1000 to 3000 ft
1500m to 5 km
500 to 1000 ft
800 to 1500m
200 to 500 ft
< 800m
< 200 ft
Symbols :   Thunderstorms  Fog  Heavy snow  Heavy precipitations  Wind > 20 kt
SIGMETs :     Misc.  Thunderstorms  Icing  Turbulence  Mountain Waves  Volcanic Ashes







- Airport Elevation : 36 ft
- IATA code : RIX


EVRA - Riga

CURRENT METAR :
  • 191250Z 25007KT 200V300 9999 SCT031 SCT038 OVC044 21/15 Q1016 NOSIG

EXPIRED METARs :
  • 191220Z 25005KT 200V310 9999 FEW027CB BKN036 21/16 Q1016 NOSIG
  • 191150Z 22007KT 200V260 9999 SCT021CB BKN028 OVC048 21/16 Q1016 NOSIG
  • 191120Z 22007KT 190V250 9999 -SHRA BKN024 BKN028CB OVC033 20/16 Q1016 NOSIG
  • 191050Z 21009KT 9999 SCT021CB BKN030 20/16 Q1016 NOSIG
  • 191020Z 22010KT 9999 BKN021 21/16 Q1016 NOSIG

TAF TAF EVRA
Valid from the 19 at 12:00 until the 20 at 12:00 UTC


191100Z 1912/2012 24010KT 9999 BKN030
TEMPO 1912/1915 BKN020CB
BECMG 1916/1918 18005KT
TEMPO 1918/1923 3000 MIFG BR SCT005
TEMPO 1923/2006 3000 -RA BR BKN005
No reported NOTAMs for that airfield.



MET'MAP, your aeronautical weather chart ! - Copyright ORBIFLY December 2007 - Disclaimer

ORBIFLY MET'MAP TEAM :

Programming & Development : Alexandra Zaïnal
Concept & Development : Baudouin d'Aumeries
Co-Development & Prog : Marc-Olivier Méhu
Technical & hardware support : Manuel Goepfert

Contact : metmap@orbifly.com




SOURCES & CREDITS :

   NOAA